OPRN/ISB METAR and TAF weather

Enter ICAO airport designator
Station Type Date Time Source
OPRN METAR 2019/09/01 00:55 UTC NOAA

OPRN 010055Z METAR OPSK 010100Z 00000KT 3000 DZ SCT040 BKN100 29/25 Q0999 NOSIG


Station Type Date Time Source
OPRN Decoded METAR 2019/09/01 00:55 UTC NOAA

Islamabad Airport, Pakistan (OPRN) 33-37N 073-06E 508M
Aug 31, 2019 - 08:55 PM EDT / 2019.09.01 0055 UTC
Wind: Calm:0
Visibility: 1 mile(s):0
Sky conditions: mostly cloudy
Weather: drizzle
Temperature: 84 F (29 C)
Dew Point: 77 F (25 C)
Relative Humidity: 79%
Pressure (altimeter): 29.50 in. Hg (0999 hPa)
ob: OPRN 010055Z METAR OPSK 010100Z 00000KT 3000 DZ SCT040 BKN100 29/25 Q0999 NOSIG
cycle: 1

Station Type Date Time Source
OPRN TAF 2019/05/15 18:06 UTC NOAA

TAF OPRN 151530Z 1518/1624 13010KT 7000 SCT040 SCT100
TEMPO 1518/1521 13010G25KT 5000 VCTS FEW030TCU/CB SCT040 BKN100
BECMG 1603/1605 23010KT 9999 FEW040

Example: see airport list